createdAt,value
2024-03-24T00:00:13.134Z,78.2091
2024-03-24T00:01:16.161Z,78.1785
2024-03-24T00:02:19.195Z,78.1806
2024-03-24T00:03:22.215Z,78.2285
2024-03-24T00:04:25.288Z,78.2625
2024-03-24T00:05:28.323Z,78.2410
2024-03-24T00:06:31.367Z,78.2602
2024-03-24T00:07:34.396Z,78.2815
2024-03-24T00:08:37.442Z,78.3071
2024-03-24T00:09:40.495Z,78.3495
2024-03-24T00:10:43.533Z,78.4214
2024-03-24T00:11:46.574Z,78.4669
2024-03-24T00:12:49.599Z,78.5306
2024-03-24T00:13:52.652Z,78.5624
2024-03-24T00:14:55.686Z,78.5446
2024-03-24T00:15:59.066Z,78.5192
2024-03-24T00:17:02.121Z,78.5175
2024-03-24T00:18:05.126Z,78.4689
2024-03-24T00:19:08.219Z,78.4686
2024-03-24T00:20:11.252Z,78.4203
2024-03-24T00:21:14.261Z,78.3559
2024-03-24T00:22:17.550Z,78.3106
2024-03-24T00:23:20.590Z,78.3243
2024-03-24T00:24:23.728Z,78.3554
2024-03-24T00:25:26.734Z,78.3453
2024-03-24T00:26:29.769Z,78.3166
2024-03-24T00:27:32.745Z,78.2959
2024-03-24T00:28:35.921Z,78.3020
2024-03-24T00:29:38.939Z,78.3244
2024-03-24T00:30:41.900Z,78.3678
2024-03-24T00:31:44.983Z,78.3706
2024-03-24T00:32:48.018Z,78.3456
2024-03-24T00:33:51.040Z,78.3429
2024-03-24T00:34:54.410Z,78.3429
2024-03-24T00:35:57.608Z,78.2837
2024-03-24T00:37:00.797Z,78.1974
2024-03-24T00:38:03.825Z,78.2117
2024-03-24T00:39:06.883Z,78.2211
2024-03-24T00:40:09.918Z,78.2187
2024-03-24T00:41:12.909Z,78.2234
2024-03-24T00:42:16.004Z,78.2105
2024-03-24T00:43:19.058Z,78.1678
2024-03-24T00:44:22.099Z,78.1191
2024-03-24T00:45:25.146Z,78.1014
2024-03-24T00:46:28.180Z,78.1393
2024-03-24T00:47:31.244Z,78.1771
2024-03-24T00:48:34.247Z,78.2002
2024-03-24T00:49:37.244Z,78.1725
2024-03-24T00:50:40.347Z,78.2322
2024-03-24T00:51:43.362Z,78.2966
2024-03-24T00:52:46.669Z,78.3441
2024-03-24T00:53:49.766Z,78.3756
2024-03-24T00:54:52.787Z,78.3703
2024-03-24T00:55:55.844Z,78.3270
2024-03-24T00:56:58.901Z,78.2745
2024-03-24T00:58:02.275Z,78.2509
2024-03-24T00:59:05.286Z,78.2621
2024-03-24T01:00:08.324Z,78.2972
2024-03-24T01:01:11.391Z,78.3273
2024-03-24T01:02:14.355Z,78.2807
2024-03-24T01:03:17.451Z,78.2986
2024-03-24T01:04:20.507Z,78.3218
2024-03-24T01:05:23.556Z,78.3194
2024-03-24T01:06:26.601Z,78.3028
2024-03-24T01:07:29.676Z,78.3163
2024-03-24T01:08:32.724Z,78.3768
2024-03-24T01:09:35.712Z,78.3744
2024-03-24T01:10:38.752Z,78.3898
2024-03-24T01:11:41.900Z,78.3834
2024-03-24T01:12:44.883Z,78.3922
2024-03-24T01:13:47.900Z,78.4415
2024-03-24T01:14:50.904Z,78.4727
2024-03-24T01:15:53.930Z,78.4297
2024-03-24T01:16:56.893Z,78.4153
2024-03-24T01:18:00.015Z,78.4558
2024-03-24T01:19:03.094Z,78.4981
2024-03-24T01:20:06.073Z,78.4826
2024-03-24T01:21:09.150Z,78.4668
2024-03-24T01:22:12.202Z,78.4942
2024-03-24T01:23:15.198Z,78.5532
2024-03-24T01:24:18.250Z,78.5946
2024-03-24T01:25:21.292Z,78.5584
2024-03-24T01:26:24.392Z,78.5904
2024-03-24T01:27:27.422Z,78.6752
2024-03-24T01:28:30.542Z,78.7062
2024-03-24T01:29:33.532Z,78.7057
2024-03-24T01:30:36.581Z,78.6665
2024-03-24T01:31:39.652Z,78.6767
2024-03-24T01:32:42.652Z,78.6918
2024-03-24T01:33:45.673Z,78.6789
2024-03-24T01:34:48.967Z,78.6792
2024-03-24T01:35:52.045Z,78.7075
2024-03-24T01:36:55.061Z,78.7410
2024-03-24T01:37:58.062Z,78.7691
2024-03-24T01:39:01.132Z,78.7273
2024-03-24T01:40:04.167Z,78.6540
2024-03-24T01:41:07.189Z,78.6470
2024-03-24T01:42:10.196Z,78.6789
2024-03-24T01:43:13.298Z,78.7063
2024-03-24T01:44:16.342Z,78.7426
2024-03-24T01:45:19.353Z,78.7388
2024-03-24T01:46:22.462Z,78.7427
2024-03-24T01:47:25.486Z,78.7791
2024-03-24T01:48:28.493Z,78.7817
2024-03-24T01:49:31.675Z,78.7516
2024-03-24T01:50:34.703Z,78.7371
2024-03-24T01:51:37.684Z,78.6745
2024-03-24T01:52:40.715Z,78.6295
2024-03-24T01:53:43.684Z,78.6600
2024-03-24T01:54:46.746Z,78.6871
2024-03-24T01:55:49.763Z,78.7465
2024-03-24T01:56:52.821Z,78.8220
2024-03-24T01:57:55.867Z,78.8073
2024-03-24T01:58:58.915Z,78.8148
2024-03-24T02:00:01.915Z,78.8776
2024-03-24T02:01:04.936Z,78.8972
2024-03-24T02:02:07.946Z,78.9167
2024-03-24T02:03:11.023Z,78.9387
2024-03-24T02:04:14.132Z,78.9585
2024-03-24T02:05:17.088Z,78.9699
2024-03-24T02:06:20.131Z,78.9426
2024-03-24T02:07:23.166Z,78.8829
2024-03-24T02:08:26.190Z,78.8317
2024-03-24T02:09:29.234Z,78.8423
2024-03-24T02:10:32.275Z,78.8645
2024-03-24T02:11:35.318Z,78.8528
2024-03-24T02:12:38.312Z,78.8600
2024-03-24T02:13:41.426Z,78.8692
2024-03-24T02:14:44.441Z,78.8854
2024-03-24T02:15:47.467Z,78.9162
2024-03-24T02:16:50.535Z,78.9328
2024-03-24T02:17:57.815Z,78.9453
2024-03-24T02:18:55.646Z,78.9761
2024-03-24T02:19:58.644Z,78.9801
2024-03-24T02:21:01.726Z,78.9503
2024-03-24T02:22:04.755Z,78.9013
2024-03-24T02:23:07.914Z,78.8611
2024-03-24T02:24:10.907Z,78.8187
2024-03-24T02:25:13.920Z,78.7244
2024-03-24T02:26:17.267Z,78.6476
2024-03-24T02:27:20.344Z,78.5471
2024-03-24T02:28:23.384Z,78.4328
2024-03-24T02:29:26.674Z,78.2738
2024-03-24T02:30:26.588Z,78.1447
2024-03-24T02:31:29.577Z,77.9983
2024-03-24T02:32:32.669Z,77.8823
2024-03-24T02:33:35.703Z,77.8372
2024-03-24T02:34:38.723Z,77.7775
2024-03-24T02:35:41.726Z,77.6686
2024-03-24T02:36:44.753Z,77.6288
2024-03-24T02:37:47.799Z,77.6681
2024-03-24T02:38:50.844Z,77.7444
2024-03-24T02:39:53.952Z,77.8314
2024-03-24T02:40:56.985Z,77.9305
2024-03-24T02:42:00.072Z,77.9959
2024-03-24T02:43:03.109Z,78.0912
2024-03-24T02:44:06.149Z,78.2459
2024-03-24T02:45:09.244Z,78.4479
2024-03-24T02:46:12.273Z,78.6110
2024-03-24T02:47:15.488Z,78.7304
2024-03-24T02:48:18.532Z,78.8471
2024-03-24T02:49:21.554Z,78.8936
2024-03-24T02:50:24.586Z,78.9247
2024-03-24T02:51:27.906Z,78.9617
2024-03-24T02:52:30.993Z,78.9779
2024-03-24T02:53:34.068Z,79.0375
2024-03-24T02:54:37.136Z,79.1285
2024-03-24T02:55:40.136Z,79.1955
2024-03-24T02:56:43.154Z,79.2802
2024-03-24T02:57:46.353Z,79.3614
2024-03-24T02:58:49.351Z,79.4354
2024-03-24T02:59:52.617Z,79.4598
2024-03-24T03:00:55.624Z,79.4766
2024-03-24T03:01:58.677Z,79.5269
2024-03-24T03:03:01.712Z,79.6093
2024-03-24T03:04:04.708Z,79.6543
2024-03-24T03:05:07.811Z,79.6353
2024-03-24T03:06:11.170Z,79.6057
2024-03-24T03:07:14.174Z,79.5850
2024-03-24T03:08:17.195Z,79.5518
2024-03-24T03:09:20.285Z,79.5602
2024-03-24T03:10:23.324Z,79.6071
2024-03-24T03:11:26.341Z,79.6310
2024-03-24T03:12:29.421Z,79.6669
2024-03-24T03:13:32.409Z,79.7050
2024-03-24T03:14:35.478Z,79.7159
2024-03-24T03:15:38.687Z,79.7688
2024-03-24T03:16:41.692Z,79.7835
2024-03-24T03:17:44.673Z,79.7512
2024-03-24T03:18:47.963Z,79.7681
2024-03-24T03:19:50.990Z,79.8058
2024-03-24T03:20:54.043Z,79.8076
2024-03-24T03:21:57.042Z,79.7616
2024-03-24T03:23:00.144Z,79.6947
2024-03-24T03:24:03.159Z,79.6792
2024-03-24T03:25:06.205Z,79.5848
2024-03-24T03:26:09.240Z,79.5034
2024-03-24T03:27:12.229Z,79.5207
2024-03-24T03:28:15.333Z,79.5421
2024-03-24T03:29:18.364Z,79.5228
2024-03-24T03:30:21.443Z,79.5007
2024-03-24T03:31:24.443Z,79.4189
2024-03-24T03:32:27.498Z,79.3889
2024-03-24T03:33:30.555Z,79.3486
2024-03-24T03:34:33.565Z,79.3330
2024-03-24T03:35:36.604Z,79.3150
2024-03-24T03:36:39.640Z,79.2218
2024-03-24T03:37:42.735Z,79.1046
2024-03-24T03:38:45.818Z,79.0084
2024-03-24T03:39:48.882Z,78.9010
2024-03-24T03:40:51.901Z,78.8311
2024-03-24T03:41:55.166Z,78.8727
2024-03-24T03:42:58.189Z,78.8760
2024-03-24T03:44:01.255Z,78.6674
2024-03-24T03:45:04.281Z,78.4069
2024-03-24T03:46:07.320Z,78.1946
2024-03-24T03:47:10.306Z,78.0564
2024-03-24T03:48:13.398Z,77.9072
2024-03-24T03:49:16.523Z,77.7913
2024-03-24T03:50:19.574Z,77.7368
2024-03-24T03:51:22.618Z,77.7181
2024-03-24T03:52:25.668Z,77.6719
2024-03-24T03:53:28.686Z,77.5680
2024-03-24T03:54:31.731Z,77.4474
2024-03-24T03:55:34.750Z,77.3757
2024-03-24T03:56:37.861Z,77.3453
2024-03-24T03:57:40.867Z,77.2955
2024-03-24T03:58:43.891Z,77.3089
2024-03-24T03:59:46.987Z,77.3516
2024-03-24T04:00:49.949Z,77.4280
2024-03-24T04:01:52.931Z,77.5885
2024-03-24T04:02:55.972Z,77.7209
2024-03-24T04:03:58.942Z,77.8145
2024-03-24T04:05:02.044Z,77.8646
2024-03-24T04:06:05.067Z,77.8695
2024-03-24T04:07:08.119Z,77.8645
2024-03-24T04:08:11.186Z,77.8689
2024-03-24T04:09:14.213Z,77.9304
2024-03-24T04:10:17.395Z,78.0907
2024-03-24T04:11:20.420Z,78.2916
2024-03-24T04:12:23.472Z,78.4894
2024-03-24T04:13:26.775Z,78.6731
2024-03-24T04:14:29.795Z,78.7861
2024-03-24T04:15:32.781Z,78.8848
2024-03-24T04:16:35.970Z,78.9982
2024-03-24T04:17:38.953Z,79.1424
2024-03-24T04:18:42.023Z,79.2488
2024-03-24T04:19:45.028Z,79.3374
2024-03-24T04:20:48.294Z,79.4125
2024-03-24T04:21:51.343Z,79.5079
2024-03-24T04:22:54.373Z,79.5972
2024-03-24T04:23:57.423Z,79.6783
2024-03-24T04:25:00.528Z,79.7779
2024-03-24T04:26:03.525Z,79.8310
2024-03-24T04:27:06.544Z,79.8901
2024-03-24T04:28:09.557Z,79.9496
2024-03-24T04:29:12.562Z,80.0378
2024-03-24T04:30:15.682Z,80.1148
2024-03-24T04:31:18.689Z,80.1397
2024-03-24T04:32:21.745Z,80.1335
2024-03-24T04:33:24.755Z,80.0747
2024-03-24T04:34:27.766Z,80.0306
2024-03-24T04:35:30.857Z,80.0158
2024-03-24T04:36:34.043Z,80.0345
2024-03-24T04:37:37.046Z,80.0022
2024-03-24T04:38:40.059Z,79.9577
2024-03-24T04:39:43.326Z,79.9968
2024-03-24T04:40:46.396Z,80.0231
2024-03-24T04:41:49.475Z,80.0263
2024-03-24T04:42:52.643Z,80.0070
2024-03-24T04:43:55.782Z,80.0032
2024-03-24T04:44:58.843Z,80.0435
2024-03-24T04:46:01.894Z,80.1585
2024-03-24T04:47:04.919Z,80.2443
2024-03-24T04:48:07.955Z,80.2983
2024-03-24T04:49:11.016Z,80.3298
2024-03-24T04:50:14.042Z,80.3706
2024-03-24T04:51:17.143Z,80.3805
2024-03-24T04:52:20.184Z,80.3428
2024-03-24T04:53:23.252Z,80.3156
2024-03-24T04:54:26.515Z,80.3148
2024-03-24T04:55:29.586Z,80.3575
2024-03-24T04:56:32.612Z,80.3849
2024-03-24T04:57:35.632Z,80.4048
2024-03-24T04:58:38.691Z,80.4311
2024-03-24T04:59:41.784Z,80.4397
2024-03-24T05:00:44.868Z,80.4056
2024-03-24T05:01:47.884Z,80.3289
2024-03-24T05:02:50.943Z,80.2948
2024-03-24T05:03:53.961Z,80.3167
2024-03-24T05:04:56.956Z,80.3707
2024-03-24T05:06:00.049Z,80.4208
2024-03-24T05:07:03.088Z,80.4542
2024-03-24T05:08:06.114Z,80.4122
2024-03-24T05:09:09.123Z,80.3232
2024-03-24T05:10:12.219Z,80.2895
2024-03-24T05:11:15.203Z,80.2686
2024-03-24T05:12:18.351Z,80.2413
2024-03-24T05:13:21.343Z,80.2092
2024-03-24T05:14:24.387Z,80.0897
2024-03-24T05:15:27.455Z,79.9736
2024-03-24T05:16:30.489Z,79.8446
2024-03-24T05:17:33.631Z,79.7075
2024-03-24T05:18:36.800Z,79.4818
2024-03-24T05:19:39.834Z,79.0809
2024-03-24T05:20:42.869Z,78.6249
2024-03-24T05:21:45.935Z,78.1478
2024-03-24T05:22:49.036Z,77.7212
2024-03-24T05:23:52.104Z,77.4377
2024-03-24T05:24:55.362Z,77.3184
2024-03-24T05:25:58.365Z,77.3093
2024-03-24T05:27:01.465Z,77.3659
2024-03-24T05:28:04.543Z,77.4700
2024-03-24T05:29:07.572Z,77.5203
2024-03-24T05:30:10.643Z,77.4915
2024-03-24T05:31:13.919Z,77.5546
2024-03-24T05:32:16.952Z,77.6186
2024-03-24T05:33:19.992Z,77.6843
2024-03-24T05:34:23.032Z,77.7300
2024-03-24T05:35:26.068Z,77.7081
2024-03-24T05:36:28.561Z,77.7053
2024-03-24T05:37:30.997Z,77.7823
2024-03-24T05:38:33.593Z,77.8954
2024-03-24T05:39:36.049Z,77.9797
2024-03-24T05:40:38.533Z,77.9219
2024-03-24T05:41:41.109Z,77.8843
2024-03-24T05:42:43.624Z,77.8718
2024-03-24T05:43:46.237Z,77.8053
2024-03-24T05:44:48.727Z,77.7768
2024-03-24T05:45:51.191Z,77.7991
2024-03-24T05:46:53.771Z,77.7900
2024-03-24T05:47:56.225Z,77.6939
2024-03-24T05:48:58.701Z,77.6716
2024-03-24T05:50:01.198Z,77.6454
2024-03-24T05:51:03.699Z,77.6607
2024-03-24T05:52:06.161Z,77.6950
2024-03-24T05:53:08.808Z,77.7652
2024-03-24T05:54:11.315Z,77.8100
2024-03-24T05:55:13.756Z,77.8584
2024-03-24T05:56:16.307Z,77.9535
2024-03-24T05:57:18.792Z,77.9970
2024-03-24T05:58:21.255Z,78.0279
2024-03-24T05:59:23.896Z,78.0964
2024-03-24T06:00:26.505Z,78.1600
2024-03-24T06:01:28.922Z,78.2056
2024-03-24T06:02:31.360Z,78.2245
2024-03-24T06:03:34.087Z,78.2435
2024-03-24T06:04:36.482Z,78.2526
2024-03-24T06:05:38.900Z,78.2405
2024-03-24T06:06:41.353Z,78.2184
2024-03-24T06:07:43.811Z,78.2115
2024-03-24T06:08:46.375Z,78.2175
2024-03-24T06:09:48.791Z,78.2057
2024-03-24T06:10:51.514Z,78.2368
2024-03-24T06:11:54.033Z,78.2962
2024-03-24T06:12:56.440Z,78.3541
2024-03-24T06:13:58.960Z,78.3931
2024-03-24T06:15:01.382Z,78.4049
2024-03-24T06:16:03.832Z,78.3832
2024-03-24T06:17:06.257Z,78.3430
2024-03-24T06:18:08.945Z,78.3430
2024-03-24T06:19:14.213Z,78.3870
2024-03-24T06:20:13.735Z,78.4183
2024-03-24T06:21:16.157Z,78.4427
2024-03-24T06:22:18.574Z,78.4431
2024-03-24T06:23:21.022Z,78.4444
2024-03-24T06:24:23.461Z,78.4615
2024-03-24T06:25:25.911Z,78.4435
2024-03-24T06:26:28.474Z,78.4498
2024-03-24T06:27:30.925Z,78.4912
2024-03-24T06:28:33.603Z,78.5412
2024-03-24T06:29:36.047Z,78.5996
2024-03-24T06:30:38.667Z,78.6541
2024-03-24T06:31:43.842Z,78.6824
2024-03-24T06:32:44.808Z,78.6998
2024-03-24T06:33:47.277Z,78.7128
2024-03-24T06:34:49.713Z,78.7267
2024-03-24T06:35:52.311Z,78.7248
2024-03-24T06:36:54.718Z,78.7148
2024-03-24T06:37:57.179Z,78.7112
2024-03-24T06:38:59.604Z,78.7019
2024-03-24T06:40:02.031Z,78.6804
2024-03-24T06:41:04.479Z,78.6371
2024-03-24T06:42:07.027Z,78.5582
2024-03-24T06:43:09.521Z,78.4682
2024-03-24T06:44:11.914Z,78.3856
2024-03-24T06:45:14.382Z,78.3483
2024-03-24T06:46:16.958Z,78.3024
2024-03-24T06:47:19.398Z,78.2236
2024-03-24T06:48:21.865Z,78.1664
2024-03-24T06:49:24.303Z,78.1367
2024-03-24T06:50:26.874Z,78.1437
2024-03-24T06:51:29.312Z,78.1549
2024-03-24T06:52:32.040Z,78.2610
2024-03-24T06:53:34.800Z,78.3717
2024-03-24T06:54:37.370Z,78.3746
2024-03-24T06:55:39.794Z,78.3752
2024-03-24T06:56:42.554Z,78.4311
2024-03-24T06:57:45.284Z,78.3889
2024-03-24T06:58:47.745Z,78.3535
2024-03-24T06:59:50.182Z,78.3588
2024-03-24T07:00:52.618Z,78.4516
2024-03-24T07:01:55.200Z,78.5866
2024-03-24T07:02:57.638Z,78.6704
2024-03-24T07:04:00.299Z,78.5782
2024-03-24T07:05:02.760Z,78.5538
2024-03-24T07:06:05.429Z,78.5791
2024-03-24T07:07:07.842Z,78.6174
2024-03-24T07:08:10.279Z,78.6247
2024-03-24T07:09:12.742Z,78.6318
2024-03-24T07:10:15.183Z,78.6505
2024-03-24T07:11:17.762Z,78.7700
2024-03-24T07:12:20.189Z,78.8649
2024-03-24T07:13:22.830Z,78.8821
2024-03-24T07:14:25.272Z,78.9432
2024-03-24T07:15:27.741Z,79.0321
2024-03-24T07:16:30.199Z,79.1204
2024-03-24T07:17:32.621Z,79.1798
2024-03-24T07:18:35.041Z,79.2409
2024-03-24T07:19:37.601Z,79.3795
2024-03-24T07:20:40.040Z,79.4903
2024-03-24T07:21:42.448Z,79.6488
2024-03-24T07:22:44.940Z,79.8292
2024-03-24T07:23:47.385Z,79.9837
2024-03-24T07:24:49.930Z,80.1161
2024-03-24T07:25:52.632Z,80.2397
2024-03-24T07:26:55.133Z,80.3371
2024-03-24T07:27:58.069Z,80.3245
2024-03-24T07:29:01.124Z,80.2399
2024-03-24T07:30:04.161Z,80.1945
2024-03-24T07:31:07.180Z,80.1675
2024-03-24T07:32:10.231Z,80.1274
2024-03-24T07:33:13.410Z,80.1874
2024-03-24T07:34:16.434Z,80.3040
2024-03-24T07:35:19.486Z,80.3679
2024-03-24T07:36:22.509Z,80.4276
2024-03-24T07:37:25.520Z,80.4843
2024-03-24T07:38:28.543Z,80.5377
2024-03-24T07:39:31.576Z,80.5733
2024-03-24T07:40:34.871Z,80.5965
2024-03-24T07:41:37.914Z,80.6078
2024-03-24T07:42:43.515Z,80.6634
2024-03-24T07:43:44.061Z,80.7757
2024-03-24T07:44:47.111Z,80.8484
2024-03-24T07:45:50.127Z,80.8764
2024-03-24T07:46:53.226Z,80.8943
2024-03-24T07:47:56.258Z,80.9001
2024-03-24T07:48:59.298Z,80.9292
2024-03-24T07:50:02.335Z,80.9973
2024-03-24T07:51:05.342Z,81.0567
2024-03-24T07:52:08.361Z,81.0799
2024-03-24T07:53:11.390Z,81.1488
2024-03-24T07:54:14.526Z,81.2597
2024-03-24T07:55:17.584Z,81.3528
2024-03-24T07:56:20.557Z,81.4410
2024-03-24T07:57:23.831Z,81.5245
2024-03-24T07:58:27.053Z,81.5340
2024-03-24T07:59:30.198Z,81.5174
2024-03-24T08:00:33.253Z,81.5060
2024-03-24T08:01:36.305Z,81.5155
2024-03-24T08:02:39.387Z,81.5325
2024-03-24T08:03:42.381Z,81.5719
2024-03-24T08:04:45.471Z,81.6278
2024-03-24T08:05:48.548Z,81.7046
2024-03-24T08:06:51.630Z,81.7292
2024-03-24T08:07:56.440Z,81.7066
2024-03-24T08:08:56.422Z,81.6033
2024-03-24T08:09:59.651Z,81.4463
2024-03-24T08:11:02.703Z,81.1240
2024-03-24T08:12:05.831Z,80.6815
2024-03-24T08:13:08.841Z,80.3103
2024-03-24T08:14:11.936Z,80.2092
2024-03-24T08:15:14.953Z,80.0934
2024-03-24T08:16:17.965Z,79.8841
2024-03-24T08:17:21.267Z,79.6347
2024-03-24T08:18:24.301Z,79.3193
2024-03-24T08:19:27.341Z,78.8215
2024-03-24T08:20:30.431Z,78.6523
2024-03-24T08:21:33.522Z,78.5983
2024-03-24T08:22:36.804Z,78.4390
2024-03-24T08:23:39.909Z,78.0545
2024-03-24T08:24:42.928Z,77.6526
2024-03-24T08:25:45.896Z,77.5787
2024-03-24T08:26:48.968Z,77.5192
2024-03-24T08:27:51.981Z,77.4424
2024-03-24T08:28:55.007Z,77.3990
2024-03-24T08:29:58.052Z,77.0989
2024-03-24T08:31:01.061Z,76.2887
2024-03-24T08:32:04.074Z,75.6112
2024-03-24T08:33:07.181Z,75.0099
2024-03-24T08:34:10.220Z,74.0685
2024-03-24T08:35:13.221Z,73.2322
2024-03-24T08:36:16.629Z,72.8386
2024-03-24T08:37:19.696Z,72.2181
2024-03-24T08:38:22.869Z,71.9161
2024-03-24T08:39:25.889Z,71.9449
2024-03-24T08:40:31.120Z,72.1479
2024-03-24T08:41:31.911Z,72.3160
2024-03-24T08:42:34.904Z,72.3639
2024-03-24T08:43:37.899Z,71.9646
2024-03-24T08:44:40.958Z,71.5351
2024-03-24T08:45:43.994Z,71.1771
2024-03-24T08:46:47.043Z,70.9173
2024-03-24T08:47:50.058Z,70.3225
2024-03-24T08:48:53.087Z,70.4197
2024-03-24T08:49:56.147Z,70.8916
2024-03-24T08:50:59.126Z,71.3163
2024-03-24T08:52:02.253Z,71.7091
2024-03-24T08:53:05.258Z,71.9168
2024-03-24T08:54:08.567Z,71.9175
2024-03-24T08:55:11.704Z,71.9337
2024-03-24T08:56:14.700Z,71.8113
2024-03-24T08:57:17.736Z,71.6664
2024-03-24T08:58:20.800Z,71.5953
2024-03-24T08:59:23.996Z,71.4437
2024-03-24T09:00:27.190Z,71.3345
2024-03-24T09:01:30.283Z,71.3392
2024-03-24T09:02:33.503Z,71.2796
2024-03-24T09:03:36.600Z,70.8185
2024-03-24T09:04:39.690Z,70.2416
2024-03-24T09:05:42.756Z,70.1297
2024-03-24T09:06:45.769Z,70.1987
2024-03-24T09:07:48.817Z,70.3246
2024-03-24T09:08:51.865Z,70.5538
2024-03-24T09:09:54.893Z,70.8504
2024-03-24T09:10:57.888Z,71.0592
2024-03-24T09:12:01.046Z,71.0730
2024-03-24T09:13:04.060Z,70.8773
2024-03-24T09:14:07.076Z,70.7801
2024-03-24T09:15:10.267Z,70.8461
2024-03-24T09:16:13.239Z,70.9767
2024-03-24T09:17:16.392Z,71.1110
2024-03-24T09:18:19.495Z,71.1901
2024-03-24T09:19:22.548Z,71.1597
2024-03-24T09:20:25.620Z,71.1046
2024-03-24T09:21:28.643Z,70.8678
2024-03-24T09:22:31.657Z,70.3609
2024-03-24T09:23:34.706Z,70.2110
2024-03-24T09:24:37.752Z,70.1386
2024-03-24T09:25:40.772Z,69.5928
2024-03-24T09:26:43.822Z,69.0134
2024-03-24T09:27:46.869Z,68.9180
2024-03-24T09:28:49.889Z,68.8820
2024-03-24T09:29:52.989Z,68.7726
2024-03-24T09:30:56.033Z,68.6572
2024-03-24T09:31:59.075Z,68.5655
2024-03-24T09:33:02.092Z,68.5899
2024-03-24T09:34:05.354Z,68.4499
2024-03-24T09:35:13.272Z,68.4391
2024-03-24T09:36:10.583Z,68.5199
2024-03-24T09:37:13.575Z,68.5397
2024-03-24T09:38:16.856Z,68.1816
2024-03-24T09:39:19.962Z,67.6977
2024-03-24T09:40:23.054Z,66.8983
2024-03-24T09:41:26.096Z,65.9972
2024-03-24T09:42:29.100Z,66.2006
2024-03-24T09:43:32.160Z,66.3452
2024-03-24T09:44:35.234Z,66.4388
2024-03-24T09:45:38.260Z,66.4499
2024-03-24T09:46:41.242Z,66.5573
2024-03-24T09:47:44.301Z,66.6024
2024-03-24T09:48:47.301Z,66.4028
2024-03-24T09:49:50.319Z,65.9096
2024-03-24T09:50:53.393Z,65.6728
2024-03-24T09:51:56.452Z,65.3707
2024-03-24T09:52:59.489Z,65.3175
2024-03-24T09:54:02.553Z,65.4380
2024-03-24T09:55:05.580Z,65.6515
2024-03-24T09:56:08.608Z,65.8207
2024-03-24T09:57:11.663Z,65.8890
2024-03-24T09:58:17.214Z,65.8106
2024-03-24T09:59:17.462Z,65.3570
2024-03-24T10:00:20.724Z,64.7951
2024-03-24T10:01:23.826Z,64.0568
2024-03-24T10:02:26.845Z,63.7564
2024-03-24T10:03:29.922Z,63.2487
2024-03-24T10:04:32.922Z,62.7160
2024-03-24T10:05:35.981Z,61.7968
2024-03-24T10:06:38.996Z,59.9207
2024-03-24T10:07:42.053Z,59.2463
2024-03-24T10:08:45.104Z,58.6227
2024-03-24T10:09:48.187Z,57.9174
2024-03-24T10:10:51.163Z,56.4954
2024-03-24T10:11:54.314Z,56.2609
2024-03-24T10:12:57.334Z,57.0412
2024-03-24T10:14:00.364Z,57.8064
2024-03-24T10:15:03.389Z,58.2169
2024-03-24T10:16:06.400Z,58.3382
2024-03-24T10:17:09.433Z,58.1835
2024-03-24T10:18:09.652Z,58.1432
2024-03-24T10:19:12.697Z,57.1607
2024-03-24T10:20:15.746Z,56.1588
2024-03-24T10:21:18.741Z,56.2382
2024-03-24T10:22:22.090Z,56.6301
2024-03-24T10:23:25.100Z,56.2461
2024-03-24T10:24:28.140Z,56.8896
2024-03-24T10:25:31.198Z,57.6043
2024-03-24T10:26:34.269Z,58.1603
2024-03-24T10:27:37.297Z,58.6747
2024-03-24T10:28:40.313Z,59.2816
2024-03-24T10:29:43.429Z,59.8476
2024-03-24T10:30:46.445Z,60.2007
2024-03-24T10:31:52.731Z,60.4457
2024-03-24T10:32:52.843Z,60.8955
2024-03-24T10:33:55.848Z,61.3109
2024-03-24T10:34:58.858Z,61.7031
2024-03-24T10:36:02.032Z,61.8589
2024-03-24T10:37:05.041Z,62.1046
2024-03-24T10:38:08.189Z,62.5190
2024-03-24T10:39:11.242Z,62.8872
2024-03-24T10:40:14.371Z,63.0691
2024-03-24T10:41:17.420Z,63.3909
2024-03-24T10:42:20.459Z,63.7815
2024-03-24T10:43:23.525Z,64.1726
2024-03-24T10:44:26.502Z,64.6191
2024-03-24T10:45:29.542Z,64.4118
2024-03-24T10:46:32.579Z,63.9619
2024-03-24T10:47:35.712Z,63.7487
2024-03-24T10:48:38.730Z,63.6898
2024-03-24T10:49:41.789Z,63.8274
2024-03-24T10:50:44.814Z,63.8072
2024-03-24T10:51:47.855Z,63.9066
2024-03-24T10:52:53.250Z,64.0779
2024-03-24T10:53:53.318Z,63.6983
2024-03-24T10:54:56.348Z,63.3695
2024-03-24T10:55:59.379Z,62.6032
2024-03-24T10:57:02.394Z,62.6512
2024-03-24T10:58:05.413Z,62.5957
2024-03-24T10:59:11.307Z,62.4592
2024-03-24T11:00:08.717Z,61.0558
2024-03-24T11:01:11.999Z,60.5596
2024-03-24T11:02:15.077Z,59.6839
2024-03-24T11:03:18.131Z,58.9228
2024-03-24T11:04:21.149Z,57.8426
2024-03-24T11:05:24.160Z,57.3609
2024-03-24T11:06:27.180Z,56.9166
2024-03-24T11:07:30.246Z,56.5931
2024-03-24T11:08:33.269Z,56.9397
2024-03-24T11:09:36.289Z,57.1411
2024-03-24T11:10:39.346Z,57.5228
2024-03-24T11:11:42.478Z,57.7526
2024-03-24T11:12:45.609Z,57.9248
2024-03-24T11:13:48.778Z,57.6684
2024-03-24T11:14:51.880Z,57.5729
2024-03-24T11:15:54.904Z,57.7809
2024-03-24T11:16:57.408Z,58.4663
2024-03-24T11:17:59.971Z,59.6096
2024-03-24T11:19:02.420Z,60.6040
2024-03-24T11:20:04.886Z,61.1559
2024-03-24T11:21:07.347Z,61.5052
2024-03-24T11:22:09.772Z,61.8142
2024-03-24T11:23:12.292Z,62.0201
2024-03-24T11:24:14.747Z,62.2064
2024-03-24T11:25:17.350Z,62.3579
2024-03-24T11:26:19.898Z,62.4303
2024-03-24T11:27:22.926Z,62.5524
2024-03-24T11:28:23.083Z,63.1464
2024-03-24T11:29:26.177Z,63.3471
2024-03-24T11:30:29.177Z,63.3558
2024-03-24T11:31:32.167Z,63.8911
2024-03-24T11:32:35.178Z,64.2982
2024-03-24T11:33:38.220Z,64.6064
2024-03-24T11:34:41.248Z,65.2909
2024-03-24T11:35:44.340Z,65.2391
2024-03-24T11:36:47.375Z,64.7738
2024-03-24T11:37:50.445Z,64.2909
2024-03-24T11:38:53.418Z,63.9401
2024-03-24T11:39:56.495Z,63.8496
2024-03-24T11:40:59.539Z,63.6882
2024-03-24T11:42:02.592Z,63.9897
2024-03-24T11:43:05.619Z,64.0486
2024-03-24T11:44:08.645Z,63.5867
2024-03-24T11:45:11.727Z,62.9886
2024-03-24T11:46:14.717Z,62.2384
2024-03-24T11:47:17.778Z,61.2814
2024-03-24T11:48:20.829Z,60.5709
2024-03-24T11:49:23.849Z,60.6941
2024-03-24T11:50:27.239Z,60.5227
2024-03-24T11:51:30.262Z,59.2130
2024-03-24T11:52:33.366Z,57.1366
2024-03-24T11:53:36.395Z,56.9320
2024-03-24T11:54:39.420Z,57.3333
2024-03-24T11:55:42.419Z,57.3559
2024-03-24T11:56:45.465Z,56.9437
2024-03-24T11:57:48.529Z,56.7445
2024-03-24T11:58:51.540Z,56.4017
2024-03-24T11:59:54.576Z,56.6358
2024-03-24T12:00:57.628Z,57.2249
2024-03-24T12:02:00.662Z,57.6298
2024-03-24T12:03:03.747Z,58.1802
2024-03-24T12:04:06.736Z,57.8285
2024-03-24T12:05:09.748Z,56.8053
2024-03-24T12:06:12.798Z,56.4476
2024-03-24T12:07:15.898Z,56.2359
2024-03-24T12:08:18.908Z,56.1465
2024-03-24T12:09:21.921Z,55.7380
2024-03-24T12:10:24.987Z,55.3663
2024-03-24T12:11:28.027Z,54.2399
2024-03-24T12:12:31.067Z,53.2245
2024-03-24T12:13:34.116Z,53.3017
2024-03-24T12:14:37.146Z,53.5248
2024-03-24T12:15:40.171Z,53.3908
2024-03-24T12:16:43.247Z,53.2163
2024-03-24T12:17:46.287Z,53.3086
2024-03-24T12:18:49.306Z,52.9059
2024-03-24T12:19:52.372Z,52.8298
2024-03-24T12:20:55.504Z,52.6965
2024-03-24T12:21:58.570Z,52.1071
2024-03-24T12:23:01.606Z,52.1317
2024-03-24T12:24:04.826Z,52.8665
2024-03-24T12:25:07.824Z,53.0615
2024-03-24T12:26:10.834Z,51.4394
2024-03-24T12:27:13.940Z,51.4027
2024-03-24T12:28:16.985Z,51.8446
2024-03-24T12:29:20.020Z,52.2969
2024-03-24T12:30:23.074Z,52.2941
2024-03-24T12:31:26.426Z,51.4531
2024-03-24T12:32:29.461Z,51.1181
2024-03-24T12:33:32.499Z,50.8548
2024-03-24T12:34:35.540Z,51.0853
2024-03-24T12:35:38.588Z,51.4432
2024-03-24T12:36:41.618Z,51.1254
2024-03-24T12:37:44.698Z,50.9071
2024-03-24T12:38:47.719Z,50.7418
2024-03-24T12:39:50.736Z,50.9571
2024-03-24T12:40:55.245Z,50.5538